Terminal Aerodrome Forecast
Issued by NWS Cleveland, OH

Home | Current Version | Previous Version | Graphics & Text | Print | Product List | Glossary On
Versions: 1 2 3 4 5 6 7 8 9 10 11 12 13 14 15 16 17 18 19 20 21 22 23 24 25 26 27 28 29 30
000
FTUS41 KCLE 151100
TAFERI
TAF
KERI 151139Z 1512/1612 16004KT P6SM OVC012
      TEMPO 1512/1516 OVC008
     FM151900 09006KT P6SM OVC014
     FM152200 12006KT P6SM OVC022
     FM160900 15008KT 5SM -RA BR OVC040=

USA.gov is the U.S. government's official web portal to all federal, state and local government web resources and services.